Latest Weather Observations for Bathurst Airport

IDN60801

Issued at 3:02 pm EST Saturday 18 April 2015 (issued every 30 minutes, with the page automatically refreshed every 10 minutes)

About weather observations | Map of weather stations | Latest weather observations for NSW | Other Formats
Station Details ID: 063291 Name: BATHURST AIRPORT AWS Lat: -33.41 Lon: 149.65 Height: 744.5 m
Data from the previous 72 hours. | See also: Recent months for locations in New South Wales
Date/Time
EST
Temp
°C
App
Temp
°C
Dew
Point
Rel
Hum
%
Delta-T
°C
Wind Press
QNH
hPa
Press
MSL
hPa
Rain
since 9 am
mm
Dir
 
Spd
km/h
Gust
km/h
Spd
kts
Gust
kts
18/02:30pm 20.0 16.2 14.8 72 3.1 NNW 28 35 15 19 1017.0 1015.6 0.0
18/02:00pm 20.2 17.6 14.8 71 3.3 NNW 22 28 12 15 1017.2 1015.8 0.0
18/01:30pm 20.0 17.2 14.4 70 3.4 NNW 22 28 12 15 1017.6 1016.1 0.0
18/01:00pm 20.0 16.5 14.6 71 3.3 N 26 32 14 17 1018.0 1016.6 0.0
18/12:30pm 19.8 16.0 14.8 73 3.0 N 28 37 15 20 1018.3 1016.9 0.0
18/12:00pm 19.9 16.9 14.7 72 3.1 N 24 32 13 17 1019.1 1017.7 0.0
18/11:30am 19.7 16.8 15.1 75 2.8 N 24 32 13 17 1019.8 1018.4 0.0
18/11:00am 19.6 16.6 14.8 74 2.9 N 24 30 13 16 1020.2 1018.9 0.0
18/10:30am 19.1 15.7 14.8 76 2.6 N 26 33 14 18 1020.5 1019.1 0.0
18/10:00am 18.9 15.2 15.0 78 2.4 N 28 35 15 19 1020.8 1019.4 0.0
18/09:30am 18.5 14.7 14.8 79 2.2 N 28 37 15 20 1021.1 1019.7 0.0
18/09:00am 17.8 14.6 14.3 80 2.1 N 24 30 13 16 1021.2 1019.9 4.0
18/08:30am 17.4 16.2 15.0 86 1.4 N 15 19 8 10 1021.4 1020.1 4.0
18/08:00am 17.2 16.5 15.4 89 1.1 N 13 17 7 9 1021.2 1019.9 4.0
18/07:30am 16.6 15.0 15.1 91 0.9 N 17 20 9 11 1021.0 1019.6 4.0
18/07:00am 15.6 15.6 15.1 97 0.3 N 9 15 5 8 1021.0 1019.6 4.0
18/06:30am 14.6 15.3 14.4 99 0.1 NW 4 7 2 4 1020.8 1019.4 4.0
18/06:00am 14.9 14.8 14.9 100 0.0 N 9 11 5 6 1020.4 1019.0 4.0
18/05:30am 15.1 16.4 15.1 100 0.0 NW 2 9 1 5 1020.2 1018.9 4.0
18/05:00am 15.1 16.8 15.1 100 0.0 CALM 0 0 0 0 1020.4 1019.0 4.0
18/04:52am 14.9 16.5 14.9 100 0.0 CALM 0 0 0 0 1020.4 1019.0 4.0
18/04:30am 14.3 14.3 14.3 100 0.0 SW 7 9 4 5 1020.5 1019.1 4.0
18/04:24am 14.5 15.2 14.5 100 0.0 N 4 9 2 5 1020.4 1019.0 4.0
18/04:07am 14.9 14.8 14.9 100 0.0 ENE 9 11 5 6 1019.9 1018.5 4.0
18/04:00am 14.8 15.6 14.8 100 0.0 W 4 9 2 5 1020.0 1018.7 4.0
18/03:30am 14.8 16.4 14.8 100 0.0 CALM 0 0 0 0 1020.1 1018.8 4.0
18/03:00am 14.7 15.1 14.7 100 0.0 WSW 6 7 3 4 1020.4 1019.0 4.0
18/02:30am 14.8 16.4 14.8 100 0.0 CALM 0 0 0 0 1020.4 1019.0 4.0
18/02:24am 14.8 16.4 14.8 100 0.0 CALM 0 0 0 0 1020.5 1019.1 4.0
18/02:12am 14.7 16.2 14.7 100 0.0 CALM 0 0 0 0 1020.6 1019.2 4.0
18/02:00am 14.6 16.1 14.6 100 0.0 CALM 0 0 0 0 1020.7 1019.3 4.0
18/01:30am 14.4 14.7 14.4 100 0.0 N 6 6 3 3 1021.1 1019.7 4.0
18/01:29am 14.3 14.5 14.3 100 0.0 N 6 6 3 3 1021.1 1019.7 4.0
18/01:00am 14.5 14.2 14.5 100 0.0 NNE 9 9 5 5 1021.4 1020.1 4.0
18/12:30am 15.7 17.6 15.7 100 0.0 CALM 0 6 0 3 1021.8 1020.4 4.0
18/12:00am 15.7 16.8 15.5 99 0.1 SSW 4 7 2 4 1022.0 1020.6 4.0
 
Date/Time
EST
Temp
°C
App
Temp
°C
Dew
Point
Rel
Hum
%
Delta-T
°C
Wind Press
QNH
hPa
Press
MSL
hPa
Rain
since 9 am
mm
Dir
 
Spd
km/h
Gust
km/h
Spd
kts
Gust
kts
17/11:30pm 15.9 17.8 15.7 99 0.1 CALM 0 0 0 0 1022.3 1021.0 4.0
17/11:00pm 16.4 18.5 16.2 99 0.1 CALM 0 0 0 0 1022.2 1020.8 4.0
17/10:30pm 16.2 17.8 16.0 99 0.1 SSW 2 6 1 3 1022.5 1021.2 4.0
17/10:00pm 16.2 17.9 16.2 100 0.0 SSW 2 7 1 4 1022.6 1021.3 4.0
17/09:30pm 16.3 17.0 16.1 99 0.1 WNW 7 9 4 5 1022.5 1021.2 4.0
17/09:00pm 16.7 17.3 15.9 95 0.5 NE 7 11 4 6 1022.4 1021.1 4.0
17/08:30pm 16.9 17.2 16.1 95 0.5 NE 9 11 5 6 1022.4 1021.1 4.0
17/08:00pm 16.9 16.6 16.4 97 0.3 NE 13 13 7 7 1022.3 1021.0 4.0
17/07:30pm 16.9 17.0 16.4 97 0.3 NE 11 15 6 8 1022.4 1021.1 4.0
17/07:00pm 17.4 17.1 16.4 94 0.6 NE 13 15 7 8 1022.3 1021.0 4.0
17/06:30pm 17.5 17.6 16.5 94 0.6 ENE 11 15 6 8 1022.0 1020.6 4.0
17/06:00pm 17.8 19.2 17.3 97 0.3 ENE 6 7 3 4 1021.9 1020.5 4.0
17/05:30pm 18.2 19.1 16.5 90 1.1 SE 7 9 4 5 1021.8 1020.4 4.0
17/05:00pm 18.6 19.0 16.4 87 1.4 SSE 9 9 5 5 1021.8 1020.4 4.0
17/04:30pm 18.7 19.0 16.1 85 1.6 SSE 9 13 5 7 1021.9 1020.5 4.0
17/04:00pm 18.9 18.7 15.8 82 1.9 SSE 11 15 6 8 1022.1 1020.7 4.0
17/03:30pm 18.9 18.8 16.1 84 1.7 SSE 11 15 6 8 1022.4 1021.1 4.0
17/03:00pm 18.6 18.5 16.0 85 1.6 S 11 13 6 7 1022.6 1021.3 4.0
17/02:30pm 18.5 18.3 15.6 83 1.8 SSE 11 15 6 8 1022.7 1021.4 4.0
17/02:00pm 18.7 18.6 16.1 85 1.6 SSE 11 15 6 8 1022.9 1021.6 4.0
17/01:30pm 18.5 18.7 16.7 89 1.1 S 11 13 6 7 1023.3 1021.9 4.0
17/01:00pm 18.4 19.0 16.7 90 1.1 SSE 9 11 5 6 1023.7 1022.4 4.0
17/12:30pm 18.0 18.8 16.3 90 1.0 SE 7 11 4 6 1024.3 1023.0 4.0
17/12:27pm 18.0 18.8 16.3 90 1.0 SE 7 11 4 6 1024.4 1023.1 4.0
17/12:00pm 17.6 18.3 17.1 97 0.3 S 9 11 5 6 1025.1 1023.8 4.0
17/11:30am 16.8 18.7 16.8 100 0.0 S 2 7 1 4 1025.9 1024.7 4.0
17/11:00am 16.3 17.1 16.3 100 0.0 S 7 9 4 5 1026.3 1025.0 4.0
17/10:54am 16.3 17.1 16.3 100 0.0 SSE 7 9 4 5 1026.3 1025.0 4.0
17/10:30am 15.9 16.7 15.9 100 0.0 SW 6 9 3 5 1026.6 1025.3 3.8
17/10:11am 15.7 15.9 15.7 100 0.0 SW 9 13 5 7 1026.8 1025.5 3.8
17/10:00am 15.6 15.7 15.6 100 0.0 SW 9 11 5 6 1026.8 1025.5 3.6
17/09:30am 15.7 15.5 15.7 100 0.0 WSW 11 13 6 7 1026.8 1025.5 1.0
17/09:26am 15.9 15.8 15.9 100 0.0 WSW 11 13 6 7 1026.8 1025.5 0.6
17/09:00am 15.9 16.2 15.9 100 0.0 SSW 9 11 5 6 1026.4 1025.1 6.6
17/08:30am 15.6 16.3 15.6 100 0.0 SSW 6 7 3 4 1026.1 1024.8 6.6
17/08:00am 15.4 16.8 15.4 100 0.0 SSE 2 9 1 5 1025.8 1024.6 6.4
17/07:30am 15.1 16.0 15.1 100 0.0 ENE 4 6 2 3 1025.5 1024.2 6.2
17/07:02am 15.0 16.6 15.0 100 0.0 CALM 0 0 0 0 1025.3 1024.0 6.2
17/07:00am 14.9 16.5 14.9 100 0.0 CALM 0 0 0 0 1025.2 1023.9 6.2
17/06:30am 14.7 16.2 14.7 100 0.0 CALM 0 0 0 0 1025.0 1023.7 6.0
17/06:00am 14.7 15.8 14.7 100 0.0 NE 2 7 1 4 1025.0 1023.7 5.8
17/05:44am 14.7 16.2 14.7 100 0.0 CALM 0 0 0 0 1024.5 1023.2 5.8
17/05:30am 14.7 16.2 14.7 100 0.0 CALM 0 0 0 0 1024.5 1023.2 5.8
17/05:00am 14.8 16.0 14.8 100 0.0 NE 2 6 1 3 1024.3 1023.0 5.8
17/04:30am 14.8 14.6 14.8 100 0.0 NE 9 9 5 5 1024.2 1022.9 5.8
17/04:00am 15.0 14.5 15.0 100 0.0 E 11 11 6 6 1024.0 1022.7 5.8
17/03:30am 14.9 14.4 14.9 100 0.0 SE 11 13 6 7 1024.0 1022.7 5.8
17/03:00am 15.0 14.2 15.0 100 0.0 SSE 13 15 7 8 1024.1 1022.8 5.8
17/02:30am 15.3 15.3 15.3 100 0.0 S 9 13 5 7 1024.5 1023.2 5.6
17/02:07am 15.1 13.9 15.1 100 0.0 E 15 19 8 10 1024.5 1023.2 5.6
17/02:00am 15.1 13.5 15.1 100 0.0 E 17 20 9 11 1024.5 1023.2 5.6
17/01:47am 14.9 14.0 14.9 100 0.0 ENE 13 15 7 8 1025.1 1023.8 5.0
17/01:30am 14.9 14.0 14.9 100 0.0 NE 13 17 7 9 1025.3 1024.0 3.8
17/01:00am 15.5 16.0 15.5 100 0.0 S 7 11 4 6 1025.3 1024.0 3.4
17/12:36am 15.0 14.9 15.0 100 0.0 WSW 9 15 5 8 1025.6 1024.3 3.0
17/12:30am 14.8 13.9 14.8 100 0.0 WSW 13 22 7 12 1025.9 1024.7 2.8
17/12:10am 14.7 11.8 14.1 96 0.4 WNW 22 39 12 21 1025.9 1024.7 1.0
17/12:00am 15.1 13.4 13.5 90 0.9 SSW 15 35 8 19 1025.9 1024.7 0.2
 
Date/Time
EST
Temp
°C
App
Temp
°C
Dew
Point
Rel
Hum
%
Delta-T
°C
Wind Press
QNH
hPa
Press
MSL
hPa
Rain
since 9 am
mm
Dir
 
Spd
km/h
Gust
km/h
Spd
kts
Gust
kts
16/11:30pm 15.9 15.3 13.4 85 1.5 S 9 11 5 6 1024.9 1023.6 0.2
16/11:00pm 15.7 15.6 13.4 86 1.3 S 6 9 3 5 1025.0 1023.7 0.2
16/10:30pm 15.8 16.7 12.9 83 1.7 CALM 0 0 0 0 1025.2 1023.9 0.2
16/10:00pm 15.9 16.4 12.8 82 1.8 SE 2 7 1 4 1025.3 1024.0 0.2
16/09:30pm 15.7 14.9 13.0 84 1.6 ENE 9 11 5 6 1025.4 1024.1 0.2
16/09:00pm 16.4 15.4 13.3 82 1.8 ENE 11 13 6 7 1025.2 1023.9 0.2
16/08:30pm 16.7 15.1 12.7 77 2.3 ENE 13 15 7 8 1025.2 1023.9 0.2
16/08:00pm 18.4 17.7 13.3 72 3.0 E 9 11 5 6 1025.1 1023.8 0.2
16/07:30pm 18.4 17.8 12.4 68 3.5 NE 7 9 4 5 1024.8 1023.5 0.2
16/07:00pm 19.1 19.0 12.1 64 4.0 N 4 7 2 4 1024.4 1023.1 0.2
16/06:30pm 20.5 21.2 12.2 59 4.8 CALM 0 0 0 0 1024.1 1022.8 0.2
16/06:00pm 20.6 21.2 11.8 57 5.1 CALM 0 6 0 3 1023.9 1022.6 0.2
16/05:30pm 21.3 20.3 12.4 57 5.2 NW 9 13 5 7 1023.7 1022.4 0.2
16/05:00pm 23.4 21.8 12.7 51 6.3 NW 13 17 7 9 1023.6 1022.3 0.2
16/04:30pm 24.4 23.1 13.6 51 6.5 WNW 13 17 7 9 1023.6 1022.3 0.2
16/04:00pm 24.6 21.7 12.2 46 7.3 WNW 19 26 10 14 1023.5 1022.2 0.2
16/03:30pm 24.7 21.7 12.0 45 7.5 WNW 19 26 10 14 1023.6 1022.3 0.2
16/03:00pm 25.1 21.8 12.7 46 7.4 WNW 22 30 12 16 1023.9 1022.6 0.2
16/02:30pm 24.6 20.7 12.2 46 7.3 WNW 24 32 13 17 1024.2 1022.9 0.2
16/02:00pm 24.3 20.3 11.9 45 7.3 WNW 24 35 13 19 1024.3 1023.0 0.2
16/01:30pm 24.6 22.0 13.8 51 6.6 NW 20 32 11 17 1024.4 1023.1 0.2
16/01:00pm 23.9 19.8 12.8 49 6.6 NW 26 33 14 18 1025.1 1023.8 0.2
16/12:30pm 23.7 20.5 13.0 51 6.4 NW 22 30 12 16 1025.6 1024.3 0.2
16/12:00pm 23.2 20.1 13.4 54 5.8 NNW 22 30 12 16 1025.9 1024.7 0.2
16/11:30am 23.1 20.9 14.9 60 5.0 NNW 20 26 11 14 1026.3 1025.0 0.2
16/11:00am 22.6 19.8 14.4 60 5.0 NW 22 30 12 16 1026.8 1025.5 0.0
16/10:30am 21.9 19.9 14.0 61 4.8 NW 17 30 9 16 1026.9 1025.6 0.0
16/10:00am 20.8 18.9 15.1 70 3.5 NNW 19 22 10 12 1026.9 1025.6 0.0
16/09:30am 19.9 18.7 15.1 74 2.9 N 15 20 8 11 1027.1 1025.9 0.0
16/09:00am 18.0 17.4 14.7 81 2.0 NNW 11 15 6 8 1027.2 1026.0 6.4
16/08:30am 17.5 17.0 14.8 84 1.6 NNE 11 13 6 7 1026.9 1025.6 6.4
16/08:00am 15.4 15.4 13.6 89 1.0 NNE 6 9 3 5 1026.9 1025.6 6.4
16/07:30am 14.1 14.9 13.6 97 0.3 W 2 6 1 3 1026.6 1025.3 6.4
16/07:00am 12.8 13.7 12.8 100 0.0 CALM 0 0 0 0 1026.3 1025.0 6.4
16/06:30am 11.9 12.5 11.9 100 0.0 CALM 0 0 0 0 1026.1 1024.8 6.4
16/06:00am 12.5 12.1 12.5 100 0.0 NNE 6 7 3 4 1025.9 1024.7 6.4
16/05:30am 12.0 12.6 12.0 100 0.0 CALM 0 0 0 0 1025.7 1024.4 6.4
16/05:00am 11.1 10.7 11.1 100 0.0 N 4 7 2 4 1025.7 1024.4 6.4
16/04:30am 11.6 10.8 11.6 100 0.0 N 7 9 4 5 1025.4 1024.1 6.4
16/04:00am 11.5 10.8 11.5 100 0.0 NNE 6 7 3 4 1025.3 1024.0 6.4
16/03:30am 11.1 9.8 11.1 100 0.0 NE 9 11 5 6 1025.2 1023.9 6.4
16/03:00am 11.8 10.3 11.8 100 0.0 ENE 11 13 6 7 1025.4 1024.1 6.4
16/02:30am 12.5 12.5 12.5 100 0.0 SSW 4 7 2 4 1026.1 1024.8 6.4
16/02:00am 12.8 12.5 12.8 100 0.0 SW 6 9 3 5 1026.1 1024.8 6.4
16/01:30am 13.1 13.6 12.9 99 0.1 NNE 2 6 1 3 1025.8 1024.6 6.4
16/01:00am 13.0 12.7 12.8 99 0.1 ENE 6 7 3 4 1026.1 1024.8 6.4
16/12:30am 13.0 13.9 12.8 99 0.1 CALM 0 0 0 0 1026.3 1025.0 6.4
16/12:00am 13.7 13.7 13.7 100 0.0 S 6 9 3 5 1026.4 1025.1 6.4
 
Date/Time
EST
Temp
°C
App
Temp
°C
Dew
Point
Rel
Hum
%
Delta-T
°C
Wind Press
QNH
hPa
Press
MSL
hPa
Rain
since 9 am
mm
Dir
 
Spd
km/h
Gust
km/h
Spd
kts
Gust
kts
15/11:30pm 13.5 13.2 13.3 99 0.1 NNE 7 9 4 5 1026.4 1025.1 6.4
15/11:00pm 13.3 13.5 13.1 99 0.1 W 4 7 2 4 1026.7 1025.4 6.4
15/10:30pm 13.7 14.0 13.5 99 0.1 W 4 7 2 4 1026.9 1025.6 6.4
15/10:00pm 13.7 13.1 13.4 98 0.2 N 9 11 5 6 1026.5 1025.2 6.4
15/09:30pm 14.1 13.2 12.7 91 0.8 NNE 9 13 5 7 1026.4 1025.1 6.4
15/09:00pm 14.4 14.6 13.0 91 0.8 NE 4 9 2 5 1026.5 1025.2 6.4
15/08:30pm 15.2 13.4 13.4 89 1.0 E 15 20 8 11 1026.6 1025.3 6.4
15/08:00pm 15.3 13.6 14.8 97 0.3 E 17 22 9 12 1026.7 1025.4 6.4
15/07:30pm 16.3 14.1 15.0 92 0.8 ESE 20 28 11 15 1026.6 1025.3 6.4
15/07:25pm 16.5 14.3 14.9 90 1.0 ESE 20 30 11 16 1026.5 1025.2 6.4
15/07:00pm 16.0 12.7 12.9 82 1.8 S 22 48 12 26 1027.2 1026.0 1.6
15/06:58pm 17.1 14.6 12.4 74 2.7 SSE 17 48 9 26 1026.8 1025.5 0.4
15/06:30pm 19.9 19.1 11.7 59 4.7 NE 7 9 4 5 1025.2 1023.9 0.0
15/06:00pm 20.0 18.7 11.2 57 5.0 N 9 11 5 6 1024.9 1023.6 0.0
15/05:30pm 20.8 18.3 11.2 54 5.5 N 15 17 8 9 1024.3 1023.0 0.0
15/05:00pm 22.9 19.7 11.3 48 6.7 N 19 24 10 13 1023.9 1022.6 0.0
15/04:30pm 24.3 20.9 11.3 44 7.6 N 20 26 11 14 1023.7 1022.4 0.0
15/04:00pm 24.7 21.3 10.6 41 8.1 NNW 19 24 10 13 1023.8 1022.5 0.0
15/03:30pm 25.0 22.5 9.7 38 8.7 NNW 13 19 7 10 1023.7 1022.4 0.0

Other Formats:

Comma delimited format used in spreadsheet applications
http://www.bom.gov.au/fwo/IDN60801/IDN60801.94729.axf

JavaScript Object Notation format (JSON) in row-major order
http://www.bom.gov.au/fwo/IDN60801/IDN60801.94729.json